LGL556R LIRF-ELLX
Flight info
| Callsign | LGL556R |
|---|---|
| Flight time | N/A |
| Altitude | 34000 |
| Route | NEMBO DCT ELKAP DCT GOVGO DCT DEVOX DCT PIMOT DCT AOSTA DCT ORSUD DCT MOLUS DCT GILIR DCT PENDU DCT IXILU DCT EPL G21 GIVOR |
| Aircraft | B738/M-SDE2E3FGHIRWXY/LB1 |
Departure
| Time | 2026-05-05 03:51 |
|---|---|
| Airport | Rome–Fiumicino Leonardo da Vinci International Airport (LIRF) |
Arrival
| Time | N/A |
|---|---|
| Airport | Luxembourg-Findel International Airport (ELLX) |
| Time | Latitude | Longitude | Altitude | Speed | Heading |
|---|---|---|---|---|---|
| 2026-05-05 03:47 | 41.80441 | 12.26446 | 14 ft | 13 kts | 70° |
| 2026-05-05 03:47 | 41.80471 | 12.26555 | 15 ft | 12 kts | 70° |
| 2026-05-05 03:47 | 41.80500 | 12.26660 | 14 ft | 12 kts | 70° |
| 2026-05-05 03:48 | 41.80529 | 12.26767 | 13 ft | 13 kts | 70° |
| 2026-05-05 03:48 | 41.80559 | 12.26875 | 12 ft | 12 kts | 69° |
| 2026-05-05 03:48 | 41.80589 | 12.26981 | 12 ft | 12 kts | 69° |
| 2026-05-05 03:48 | 41.80629 | 12.27041 | 12 ft | 7 kts | 22° |
| 2026-05-05 03:49 | 41.80676 | 12.27050 | 12 ft | 7 kts | 5° |
| 2026-05-05 03:49 | 41.80738 | 12.27057 | 15 ft | 11 kts | 5° |
| 2026-05-05 03:49 | 41.80824 | 12.27035 | 14 ft | 14 kts | 341° |
| 2026-05-05 03:49 | 41.80882 | 12.27006 | 14 ft | 8 kts | 339° |
| 2026-05-05 03:50 | 41.80929 | 12.26982 | 12 ft | 7 kts | 339° |
| 2026-05-05 03:50 | 41.80958 | 12.26933 | 11 ft | 9 kts | 258° |
| 2026-05-05 03:50 | 41.80934 | 12.26840 | 14 ft | 15 kts | 250° |
| 2026-05-05 03:50 | 41.80842 | 12.26508 | 16 ft | 73 kts | 250° |
| 2026-05-05 03:51 | 41.80582 | 12.25565 | 16 ft | 140 kts | 250° |
| 2026-05-05 03:51 | 41.80206 | 12.24161 | 339 ft | 165 kts | 249° |
| 2026-05-05 03:51 | 41.79845 | 12.22711 | 1112 ft | 168 kts | 249° |
| 2026-05-05 03:51 | 41.79446 | 12.21212 | 1806 ft | 172 kts | 247° |
| 2026-05-05 03:52 | 41.79196 | 12.19612 | 2381 ft | 184 kts | 269° |
| 2026-05-05 03:52 | 41.79265 | 12.17974 | 3352 ft | 169 kts | 270° |
| 2026-05-05 03:52 | 41.79244 | 12.16331 | 3828 ft | 186 kts | 266° |
| 2026-05-05 03:52 | 41.79184 | 12.14470 | 4047 ft | 215 kts | 266° |
| 2026-05-05 03:53 | 41.79117 | 12.12355 | 4278 ft | 239 kts | 266° |
| 2026-05-05 03:53 | 41.79046 | 12.10006 | 4568 ft | 263 kts | 266° |
| 2026-05-05 03:53 | 41.79011 | 12.07511 | 5236 ft | 272 kts | 268° |
| 2026-05-05 03:53 | 41.79009 | 12.04962 | 6023 ft | 276 kts | 268° |
| 2026-05-05 03:54 | 41.79012 | 12.02374 | 6837 ft | 279 kts | 268° |
| 2026-05-05 03:54 | 41.79012 | 11.99801 | 7704 ft | 280 kts | 267° |
| 2026-05-05 03:54 | 41.79009 | 11.97187 | 8618 ft | 281 kts | 267° |
| 2026-05-05 03:54 | 41.79005 | 11.94570 | 9510 ft | 282 kts | 267° |
| 2026-05-05 03:55 | 41.79000 | 11.91934 | 10434 ft | 284 kts | 267° |
| 2026-05-05 03:55 | 41.78991 | 11.89190 | 10795 ft | 307 kts | 267° |
| 2026-05-05 03:55 | 41.78979 | 11.86208 | 11016 ft | 331 kts | 267° |
| 2026-05-05 03:55 | 41.78967 | 11.83063 | 11570 ft | 342 kts | 268° |
| 2026-05-05 03:56 | 41.78955 | 11.79895 | 12358 ft | 345 kts | 268° |
| 2026-05-05 03:56 | 41.78943 | 11.76680 | 13243 ft | 346 kts | 268° |
| 2026-05-05 03:56 | 41.78929 | 11.73422 | 14001 ft | 352 kts | 268° |
| 2026-05-05 03:56 | 41.78914 | 11.70134 | 14857 ft | 354 kts | 268° |
| 2026-05-05 03:57 | 41.78899 | 11.66830 | 15718 ft | 356 kts | 268° |
| 2026-05-05 03:57 | 41.78881 | 11.63488 | 16512 ft | 360 kts | 268° |
| 2026-05-05 03:57 | 41.78862 | 11.60114 | 17273 ft | 364 kts | 268° |
| 2026-05-05 03:57 | 41.79043 | 11.56718 | 17977 ft | 372 kts | 281° |
| 2026-05-05 03:58 | 41.80040 | 11.53488 | 18717 ft | 381 kts | 298° |
| 2026-05-05 03:58 | 41.81643 | 11.50686 | 19461 ft | 386 kts | 307° |
| 2026-05-05 03:58 | 41.83422 | 11.47973 | 20149 ft | 390 kts | 308° |
| 2026-05-05 03:58 | 41.85242 | 11.45260 | 20834 ft | 392 kts | 308° |
| 2026-05-05 03:59 | 41.87069 | 11.42540 | 21527 ft | 394 kts | 308° |
| 2026-05-05 03:59 | 41.88900 | 11.39794 | 22176 ft | 395 kts | 308° |
| 2026-05-05 03:59 | 41.90734 | 11.37021 | 22772 ft | 398 kts | 308° |
| 2026-05-05 03:59 | 41.92570 | 11.34229 | 23359 ft | 401 kts | 307° |
| 2026-05-05 04:00 | 41.94415 | 11.31407 | 23925 ft | 403 kts | 307° |
| 2026-05-05 04:00 | 41.96266 | 11.28570 | 24486 ft | 405 kts | 307° |
| 2026-05-05 04:00 | 41.98100 | 11.25751 | 25006 ft | 407 kts | 307° |
| 2026-05-05 04:00 | 41.99967 | 11.22878 | 25509 ft | 410 kts | 307° |
| 2026-05-05 04:01 | 42.01849 | 11.19980 | 25999 ft | 412 kts | 307° |
| 2026-05-05 04:01 | 42.03745 | 11.17056 | 26368 ft | 417 kts | 306° |
| 2026-05-05 04:01 | 42.05657 | 11.14104 | 26807 ft | 419 kts | 306° |
| 2026-05-05 04:01 | 42.07576 | 11.11141 | 27271 ft | 421 kts | 306° |
| 2026-05-05 04:02 | 42.09505 | 11.08160 | 27710 ft | 423 kts | 306° |
| 2026-05-05 04:02 | 42.11440 | 11.05166 | 28101 ft | 425 kts | 306° |
| 2026-05-05 04:02 | 42.13386 | 11.02153 | 28491 ft | 427 kts | 306° |
| 2026-05-05 04:02 | 42.15316 | 10.99162 | 28902 ft | 429 kts | 305° |
| 2026-05-05 04:03 | 42.17276 | 10.96121 | 29272 ft | 431 kts | 305° |
| 2026-05-05 04:03 | 42.19245 | 10.93060 | 29639 ft | 433 kts | 305° |
| 2026-05-05 04:03 | 42.21215 | 10.89998 | 30119 ft | 431 kts | 305° |
| 2026-05-05 04:03 | 42.23169 | 10.86960 | 30668 ft | 428 kts | 304° |
| 2026-05-05 04:04 | 42.25109 | 10.83937 | 31182 ft | 425 kts | 304° |
| 2026-05-05 04:04 | 42.27050 | 10.80921 | 31628 ft | 425 kts | 306° |
| 2026-05-05 04:04 | 42.29336 | 10.78317 | 31960 ft | 441 kts | 321° |
| 2026-05-05 04:04 | 42.32173 | 10.76595 | 32343 ft | 455 kts | 337° |
| 2026-05-05 04:05 | 42.35219 | 10.75589 | 32822 ft | 456 kts | 340° |
| 2026-05-05 04:05 | 42.38322 | 10.74688 | 33260 ft | 456 kts | 341° |
| 2026-05-05 04:05 | 42.41423 | 10.73809 | 33632 ft | 455 kts | 341° |
| 2026-05-05 04:05 | 42.44525 | 10.72911 | 33974 ft | 455 kts | 340° |
| 2026-05-05 04:06 | 42.50754 | 10.71030 | 34013 ft | 459 kts | 340° |
| 2026-05-05 04:06 | 42.56934 | 10.69120 | 34006 ft | 452 kts | 340° |
| 2026-05-05 04:07 | 42.63032 | 10.67222 | 34017 ft | 453 kts | 340° |
| 2026-05-05 04:07 | 42.69179 | 10.65310 | 34016 ft | 454 kts | 340° |
| 2026-05-05 04:08 | 42.75060 | 10.62598 | 34012 ft | 440 kts | 326° |
| 2026-05-05 04:08 | 42.80519 | 10.58822 | 34010 ft | 441 kts | 326° |
| 2026-05-05 04:09 | 42.85988 | 10.55043 | 34008 ft | 441 kts | 326° |
| 2026-05-05 04:09 | 42.91446 | 10.51323 | 34010 ft | 442 kts | 327° |
| 2026-05-05 04:10 | 42.96950 | 10.47587 | 34004 ft | 442 kts | 327° |
| 2026-05-05 04:10 | 43.02459 | 10.43842 | 33998 ft | 443 kts | 327° |
| 2026-05-05 04:11 | 43.07973 | 10.40083 | 33990 ft | 443 kts | 327° |
| 2026-05-05 04:11 | 43.13440 | 10.36348 | 33988 ft | 442 kts | 327° |
| 2026-05-05 04:12 | 43.18855 | 10.32410 | 33976 ft | 436 kts | 320° |
| 2026-05-05 04:12 | 43.23721 | 10.27515 | 33971 ft | 434 kts | 317° |
| 2026-05-05 04:13 | 43.28527 | 10.22513 | 33972 ft | 433 kts | 317° |
| 2026-05-05 04:13 | 43.33351 | 10.17540 | 33972 ft | 434 kts | 317° |
| 2026-05-05 04:14 | 43.38162 | 10.12618 | 33973 ft | 434 kts | 318° |
| 2026-05-05 04:14 | 43.43015 | 10.07663 | 33973 ft | 435 kts | 318° |
| 2026-05-05 04:15 | 43.47873 | 10.02694 | 33972 ft | 435 kts | 318° |
| 2026-05-05 04:15 | 43.52736 | 9.97712 | 33972 ft | 436 kts | 318° |
| 2026-05-05 04:16 | 43.57577 | 9.92738 | 33971 ft | 437 kts | 318° |
| 2026-05-05 04:16 | 43.62455 | 9.87717 | 33962 ft | 438 kts | 318° |
| 2026-05-05 04:17 | 43.67337 | 9.82680 | 33963 ft | 439 kts | 318° |
| 2026-05-05 04:17 | 43.72230 | 9.77623 | 33965 ft | 439 kts | 319° |
| 2026-05-05 04:18 | 43.77120 | 9.72559 | 33961 ft | 439 kts | 319° |
| 2026-05-05 04:18 | 43.81983 | 9.67512 | 33964 ft | 440 kts | 318° |
| 2026-05-05 04:19 | 43.85255 | 9.64108 | 33961 ft | 440 kts | 318° |